Time;durP1;ratioP1;P1;durP2;ratioP2;P2;SDS_P1;SDS_P2;PMS_P1;PMS_P2;Temp;Humidity;BMP_temperature;BMP_pressure;BME280_temperature;BME280_humidity;BME280_pressure;Samples;Min_cycle;Max_cycle;Signal;HPM_P1;HPM_P2
2023/02/04 00:01:30;;;;;;;25.55;3.50;;;5.90;99.90;;;;;;14903139;23;20027;-86
2023/02/04 00:07:31;;;;;;;33.72;3.72;;;6.00;99.90;;;;;;14927737;23;20070;-85
2023/02/04 00:13:33;;;;;;;27.80;3.78;;;6.00;99.90;;;;;;14926831;23;20338;-86
2023/02/04 00:19:41;;;;;;;30.92;4.80;;;6.10;99.90;;;;;;14903113;23;20018;-86
2023/02/04 00:25:43;;;;;;;35.08;4.13;;;6.00;99.90;;;;;;14902823;23;20364;-85
2023/02/04 00:31:45;;;;;;;28.20;3.38;;;6.10;99.90;;;;;;14899780;23;20107;-86
2023/02/04 00:37:48;;;;;;;25.60;4.20;;;6.10;99.90;;;;;;14921447;23;20026;-86
2023/02/04 00:43:49;;;;;;;29.95;4.22;;;6.10;99.90;;;;;;14918224;23;20035;-86
2023/02/04 00:49:51;;;;;;;26.52;3.33;;;6.10;99.90;;;;;;14896967;23;20028;-85
2023/02/04 00:55:53;;;;;;;31.70;3.95;;;6.10;99.90;;;;;;14895394;23;20024;-85
2023/02/04 01:01:55;;;;;;;34.92;4.70;;;6.10;99.90;;;;;;14893691;23;20546;-85
2023/02/04 01:07:57;;;;;;;30.33;3.75;;;6.10;99.90;;;;;;14898400;23;20027;-85
2023/02/04 01:13:59;;;;;;;26.42;4.03;;;6.10;99.90;;;;;;14897166;23;20155;-85
2023/02/04 01:20:01;;;;;;;32.88;3.80;;;6.00;99.90;;;;;;14925304;23;20067;-85
2023/02/04 01:26:06;;;;;;;27.77;3.75;;;6.00;99.90;;;;;;14899118;23;20059;-85
2023/02/04 01:32:07;;;;;;;28.90;4.47;;;5.90;99.90;;;;;;14900334;23;20469;-85
2023/02/04 01:38:09;;;;;;;38.28;4.60;;;5.80;99.90;;;;;;14919462;23;20110;-86
2023/02/04 01:44:11;;;;;;;26.92;3.78;;;5.80;99.90;;;;;;14897185;23;20031;-86
2023/02/04 01:50:15;;;;;;;23.45;3.28;;;5.60;99.90;;;;;;14894619;23;20027;-85
2023/02/04 01:56:20;;;;;;;19.07;2.90;;;5.60;99.90;;;;;;14896936;23;20055;-85
2023/02/04 02:02:40;;;;;;;19.60;2.65;;;5.50;99.90;;;;;;14919260;23;20032;-85
2023/02/04 02:08:42;;;;;;;25.50;2.47;;;5.40;99.90;;;;;;14898761;23;20051;-85
2023/02/04 02:14:44;;;;;;;13.63;2.60;;;5.30;99.90;;;;;;14891940;23;20032;-85
2023/02/04 02:20:46;;;;;;;21.73;3.45;;;5.30;99.90;;;;;;14893798;23;20487;-85
2023/02/04 02:26:48;;;;;;;22.63;2.67;;;5.30;99.90;;;;;;14920320;23;20453;-84
2023/02/04 02:32:51;;;;;;;14.48;2.20;;;5.30;99.90;;;;;;14895780;23;20127;-85
2023/02/04 02:38:54;;;;;;;17.98;2.13;;;5.20;99.90;;;;;;14892244;23;20052;-85
2023/02/04 02:44:58;;;;;;;17.65;2.08;;;5.20;99.90;;;;;;14897081;23;20031;-84
2023/02/04 02:51:00;;;;;;;17.40;1.67;;;5.10;99.90;;;;;;14919217;23;20035;-86
2023/02/04 02:57:02;;;;;;;9.93;1.48;;;5.10;99.90;;;;;;14917103;23;20038;-84
2023/02/04 03:03:10;;;;;;;10.43;1.50;;;5.00;99.90;;;;;;14896710;23;20032;-85
2023/02/04 03:09:12;;;;;;;9.48;1.55;;;4.90;99.90;;;;;;14898522;23;20023;-84
2023/02/04 03:15:15;;;;;;;8.90;1.50;;;4.80;99.90;;;;;;14918955;23;20107;-85
2023/02/04 03:21:16;;;;;;;11.90;1.45;;;4.70;99.90;;;;;;14898770;23;20064;-85
2023/02/04 03:27:19;;;;;;;8.05;1.30;;;4.60;99.90;;;;;;14899460;23;20091;-85
2023/02/04 03:33:30;;;;;;;10.82;1.35;;;4.60;99.90;;;;;;14898055;23;20043;-85
2023/02/04 03:39:35;;;;;;;13.27;1.30;;;4.70;99.90;;;;;;14898888;23;20034;-84
2023/02/04 03:45:36;;;;;;;8.90;1.30;;;4.60;99.90;;;;;;14893848;23;20024;-85
2023/02/04 03:51:46;;;;;;;7.45;0.95;;;4.50;99.90;;;;;;14898793;23;20024;-85
2023/02/04 03:57:48;;;;;;;8.60;1.30;;;4.50;99.90;;;;;;14899242;23;20059;-84
2023/02/04 04:03:50;;;;;;;10.35;1.83;;;4.50;99.90;;;;;;14895697;23;20089;-85
2023/02/04 04:09:52;;;;;;;7.07;1.10;;;4.40;99.90;;;;;;14923529;23;20334;-84
2023/02/04 04:15:53;;;;;;;12.15;1.30;;;4.30;99.90;;;;;;14892574;23;20020;-84
2023/02/04 04:21:55;;;;;;;9.25;1.02;;;4.20;99.90;;;;;;14898225;23;20028;-84
2023/02/04 04:27:58;;;;;;;7.97;1.40;;;4.20;99.90;;;;;;14894904;23;20138;-84
2023/02/04 04:34:00;;;;;;;11.93;1.50;;;4.20;99.90;;;;;;14896108;23;20424;-84
2023/02/04 04:40:04;;;;;;;13.70;1.70;;;4.20;99.90;;;;;;14884161;23;20023;-85
2023/02/04 04:46:06;;;;;;;7.80;1.30;;;4.20;99.90;;;;;;14896615;23;20095;-84
2023/02/04 04:52:09;;;;;;;9.43;1.48;;;4.10;99.90;;;;;;14895346;23;20030;-84
2023/02/04 04:58:11;;;;;;;10.43;1.42;;;4.10;99.90;;;;;;14896982;23;20027;-85
2023/02/04 05:04:13;;;;;;;9.82;1.48;;;4.20;99.90;;;;;;14892783;23;20032;-84
2023/02/04 05:10:15;;;;;;;9.30;1.23;;;4.10;99.90;;;;;;14895982;23;20446;-84
2023/02/04 05:16:17;;;;;;;9.95;1.40;;;4.10;99.90;;;;;;14897562;23;20093;-84
2023/02/04 05:22:19;;;;;;;5.90;1.33;;;4.10;99.90;;;;;;14921811;23;20361;-85
2023/02/04 05:28:21;;;;;;;6.97;1.13;;;3.90;99.90;;;;;;14915120;23;20107;-84
2023/02/04 05:34:23;;;;;;;3.60;1.23;;;3.90;99.90;;;;;;14893412;23;20031;-84
2023/02/04 05:40:24;;;;;;;10.10;1.52;;;3.70;99.90;;;;;;14895075;23;20019;-84
2023/02/04 05:46:26;;;;;;;13.98;2.28;;;3.60;99.90;;;;;;14898362;23;20029;-85
2023/02/04 05:52:28;;;;;;;8.73;2.15;;;3.60;99.90;;;;;;14902027;23;20110;-85
2023/02/04 05:58:32;;;;;;;5.28;1.40;;;3.50;99.90;;;;;;14904472;23;20031;-85
2023/02/04 06:04:34;;;;;;;4.63;1.27;;;3.50;99.90;;;;;;14895572;23;20540;-85
2023/02/04 06:10:36;;;;;;;6.75;1.70;;;3.50;99.90;;;;;;14898518;23;20043;-85
2023/02/04 06:16:38;;;;;;;6.53;1.58;;;3.60;99.90;;;;;;14891625;23;20078;-85
2023/02/04 06:22:40;;;;;;;6.60;1.77;;;3.50;99.90;;;;;;14921233;23;20028;-85
2023/02/04 06:28:42;;;;;;;4.82;1.52;;;3.60;99.90;;;;;;14888047;23;20030;-86
2023/02/04 06:34:47;;;;;;;4.85;1.40;;;3.30;99.90;;;;;;14891787;23;20475;-84
2023/02/04 06:40:52;;;;;;;5.10;1.60;;;3.30;99.90;;;;;;14902303;23;20095;-84
2023/02/04 06:46:54;;;;;;;6.63;1.27;;;3.20;99.90;;;;;;14927527;23;20020;-85
2023/02/04 06:52:56;;;;;;;5.15;1.25;;;3.20;99.90;;;;;;14901942;23;20031;-85
2023/02/04 06:58:58;;;;;;;5.95;1.65;;;3.10;99.90;;;;;;14929122;23;20027;-85
2023/02/04 07:05:00;;;;;;;4.85;1.48;;;3.10;99.90;;;;;;14928125;23;20027;-85
2023/02/04 07:11:02;;;;;;;6.72;1.55;;;3.10;99.90;;;;;;14904386;23;20042;-85
2023/02/04 07:17:03;;;;;;;4.82;1.60;;;3.10;99.90;;;;;;14906838;23;20561;-85
2023/02/04 07:23:05;;;;;;;7.05;1.77;;;3.10;99.90;;;;;;14909292;23;20024;-85
2023/02/04 07:29:07;;;;;;;4.80;1.42;;;3.00;99.90;;;;;;14913976;23;20098;-85
2023/02/04 07:35:21;;;;;;;9.57;1.90;;;2.90;99.90;;;;;;14912601;23;20060;-85
2023/02/04 07:41:23;;;;;;;6.47;2.13;;;2.80;99.90;;;;;;14905351;23;20032;-85
2023/02/04 07:47:25;;;;;;;6.55;2.35;;;2.80;99.90;;;;;;14903846;23;20023;-85
2023/02/04 07:53:26;;;;;;;4.70;1.77;;;2.80;99.90;;;;;;14902548;23;20469;-85
2023/02/04 07:59:28;;;;;;;6.55;1.92;;;3.00;99.90;;;;;;14908609;23;20111;-85
2023/02/04 08:05:30;;;;;;;7.20;1.90;;;3.00;99.90;;;;;;14908398;23;20023;-85
2023/02/04 08:11:32;;;;;;;4.82;1.80;;;2.90;99.90;;;;;;14917907;23;20012;-85
2023/02/04 08:17:34;;;;;;;3.58;1.50;;;3.10;99.90;;;;;;14984382;23;20022;-85
2023/02/04 08:23:40;;;;;;;9.05;2.15;;;3.60;99.90;;;;;;14958786;23;20034;-85
2023/02/04 08:29:42;;;;;;;7.97;1.73;;;3.80;99.90;;;;;;14958101;23;20024;-86
2023/02/04 08:35:44;;;;;;;5.80;2.03;;;4.00;99.90;;;;;;14956951;23;20024;-86
2023/02/04 08:41:47;;;;;;;4.25;1.50;;;3.90;99.90;;;;;;14977556;23;20016;-86
2023/02/04 08:47:49;;;;;;;6.23;1.40;;;4.10;99.90;;;;;;14982873;23;20048;-85
2023/02/04 08:53:51;;;;;;;2.80;1.20;;;4.00;99.90;;;;;;14954095;23;20024;-85
2023/02/04 08:59:53;;;;;;;2.60;1.30;;;3.90;99.90;;;;;;14980463;23;20028;-86
2023/02/04 09:05:55;;;;;;;3.70;1.70;;;4.00;99.90;;;;;;14953189;23;20020;-85
2023/02/04 09:11:56;;;;;;;4.45;1.95;;;4.00;99.90;;;;;;14928689;23;20028;-85
2023/02/04 09:18:10;;;;;;;2.83;1.42;;;4.50;99.90;;;;;;14919294;23;20028;-85
2023/02/04 09:24:11;;;;;;;4.03;1.30;;;4.50;99.90;;;;;;14913766;23;20066;-85
2023/02/04 09:30:14;;;;;;;4.05;1.33;;;4.40;99.90;;;;;;14912520;23;20056;-85
2023/02/04 09:36:16;;;;;;;7.22;1.60;;;4.70;99.90;;;;;;14910754;23;20023;-85
2023/02/04 09:42:19;;;;;;;3.40;1.48;;;4.70;99.90;;;;;;14910619;23;20334;-85
2023/02/04 09:48:23;;;;;;;2.50;1.30;;;4.80;99.90;;;;;;14907615;23;20337;-86
2023/02/04 09:54:25;;;;;;;5.43;1.50;;;4.80;99.90;;;;;;14904780;23;20028;-85
2023/02/04 10:00:29;;;;;;;3.55;1.58;;;4.90;99.90;;;;;;14855470;23;20024;-85
2023/02/04 10:06:31;;;;;;;3.30;1.30;;;4.90;99.90;;;;;;14848667;24;20080;-87
2023/02/04 10:12:33;;;;;;;3.58;1.38;;;4.60;99.90;;;;;;14843023;23;20063;-87
2023/02/04 10:18:36;;;;;;;3.17;1.27;;;4.60;99.90;;;;;;14847182;24;20028;-87
2023/02/04 10:24:38;;;;;;;2.78;1.30;;;5.00;99.90;;;;;;14846994;23;20028;-87
2023/02/04 10:30:42;;;;;;;2.72;1.17;;;5.20;99.90;;;;;;14840852;23;20034;-86
2023/02/04 10:36:47;;;;;;;2.93;1.53;;;5.60;99.90;;;;;;14842997;24;20032;-86
2023/02/04 10:42:50;;;;;;;3.72;1.40;;;5.80;99.90;;;;;;14842213;23;20020;-86
2023/02/04 10:48:52;;;;;;;2.72;1.33;;;5.70;99.90;;;;;;14846230;24;20107;-86
2023/02/04 10:54:54;;;;;;;2.00;0.93;;;6.20;99.90;;;;;;14844362;23;20553;-86
2023/02/04 11:00:56;;;;;;;2.95;0.88;;;6.10;99.90;;;;;;14848450;23;20024;-86
2023/02/04 11:06:58;;;;;;;3.13;1.23;;;6.30;99.90;;;;;;14850417;23;20027;-86
2023/02/04 11:13:03;;;;;;;2.40;0.93;;;6.10;99.90;;;;;;14843034;23;20028;-87
2023/02/04 11:19:11;;;;;;;1.90;0.90;;;6.20;99.90;;;;;;14849159;24;20059;-86
2023/02/04 11:25:33;;;;;;;1.80;0.90;;;6.30;99.90;;;;;;14847567;23;20035;-85
2023/02/04 11:31:45;;;;;;;4.68;1.20;;;6.70;99.90;;;;;;14842851;23;20028;-85
2023/02/04 11:37:48;;;;;;;3.13;1.02;;;6.80;99.90;;;;;;14848871;23;20374;-86
2023/02/04 11:43:52;;;;;;;3.25;1.10;;;6.80;99.90;;;;;;14850571;23;20101;-86
2023/02/04 11:50:00;;;;;;;4.13;1.00;;;7.10;99.90;;;;;;14848133;23;20100;-86
2023/02/04 11:56:02;;;;;;;1.60;1.10;;;6.50;99.90;;;;;;14849978;23;20103;-87
2023/02/04 12:02:16;;;;;;;2.53;1.15;;;6.80;99.90;;;;;;14844354;23;20028;-86
2023/02/04 12:08:38;;;;;;;3.33;1.17;;;6.90;99.90;;;;;;14846862;24;20028;-87
2023/02/04 12:14:40;;;;;;;4.00;1.08;;;6.40;99.90;;;;;;14846281;23;20028;-86
2023/02/04 12:20:42;;;;;;;2.78;0.93;;;6.20;99.90;;;;;;14850121;23;20020;-86
2023/02/04 12:26:44;;;;;;;2.00;1.02;;;6.00;99.90;;;;;;14848211;23;20395;-87
2023/02/04 12:32:46;;;;;;;2.22;1.10;;;5.80;99.90;;;;;;14844325;23;20147;-86
2023/02/04 12:38:48;;;;;;;2.45;1.10;;;5.70;99.90;;;;;;14849085;24;20024;-85
2023/02/04 12:44:50;;;;;;;2.10;0.90;;;5.90;99.90;;;;;;14844147;23;20120;-85
2023/02/04 12:50:52;;;;;;;1.98;1.02;;;6.30;99.90;;;;;;14846404;23;20103;-85
2023/02/04 12:56:56;;;;;;;2.30;1.00;;;6.60;99.90;;;;;;14851282;23;20449;-85
2023/02/04 13:02:59;;;;;;;3.10;0.98;;;7.00;99.90;;;;;;14890644;23;20027;-86
2023/02/04 13:09:01;;;;;;;1.60;0.80;;;6.80;99.90;;;;;;14894290;23;20027;-86
2023/02/04 13:15:03;;;;;;;1.95;0.80;;;6.60;99.90;;;;;;14884925;23;20038;-86
2023/02/04 13:21:05;;;;;;;2.13;1.00;;;6.80;99.90;;;;;;14894484;23;20028;-86
2023/02/04 13:27:07;;;;;;;2.50;1.02;;;6.90;99.90;;;;;;14914746;23;20064;-86
2023/02/04 13:33:08;;;;;;;3.72;1.00;;;6.60;99.90;;;;;;14886781;23;20068;-86
2023/02/04 13:39:11;;;;;;;2.40;0.73;;;6.50;99.90;;;;;;14892877;23;20334;-86
2023/02/04 13:45:15;;;;;;;2.33;1.08;;;6.60;99.90;;;;;;14891729;23;20015;-86
2023/02/04 13:51:17;;;;;;;4.90;0.98;;;6.70;99.90;;;;;;14889503;23;20535;-86
2023/02/04 13:57:20;;;;;;;5.22;1.05;;;6.70;99.90;;;;;;14893026;23;20024;-86
2023/02/04 14:03:25;;;;;;;1.92;0.90;;;6.40;99.90;;;;;;14890188;23;20031;-86
2023/02/04 14:09:27;;;;;;;2.10;1.00;;;6.20;99.90;;;;;;14914831;23;20098;-85
2023/02/04 14:15:28;;;;;;;5.10;1.25;;;6.20;99.90;;;;;;14901767;23;20055;-86
2023/02/04 14:21:30;;;;;;;4.22;1.25;;;6.20;99.90;;;;;;14897508;23;20076;-85
2023/02/04 14:27:34;;;;;;;1.98;1.00;;;6.00;99.90;;;;;;14896982;23;20024;-85
2023/02/04 14:33:38;;;;;;;3.80;1.00;;;6.10;99.90;;;;;;14894773;23;21031;-86
2023/02/04 14:39:40;;;;;;;;;;;5.90;99.90;;;;;;14918726;23;20020;-86
2023/02/04 14:45:42;;;;;;;3.15;1.20;;;5.90;99.90;;;;;;14895565;23;19925;-86
2023/02/04 14:51:44;;;;;;;2.45;1.45;;;5.80;99.90;;;;;;14889608;23;20267;-86
2023/02/04 14:57:46;;;;;;;2.83;1.20;;;5.70;99.90;;;;;;14891173;23;20468;-86
2023/02/04 15:03:47;;;;;;;2.65;1.48;;;5.70;99.90;;;;;;14921615;23;20397;-86
2023/02/04 15:09:49;;;;;;;2.58;1.30;;;5.60;99.90;;;;;;14893605;23;20102;-86
2023/02/04 15:15:51;;;;;;;5.60;1.45;;;5.60;99.90;;;;;;14892372;23;20028;-85
2023/02/04 15:21:53;;;;;;;2.85;1.40;;;5.70;99.90;;;;;;14897591;23;20032;-85
2023/02/04 15:27:55;;;;;;;2.20;1.38;;;5.70;99.90;;;;;;14892709;23;20566;-85
2023/02/04 15:33:57;;;;;;;6.60;1.88;;;5.80;99.90;;;;;;14922328;23;20050;-85
2023/02/04 15:39:59;;;;;;;5.38;1.70;;;5.60;99.90;;;;;;14899958;23;20027;-85
2023/02/04 15:46:01;;;;;;;3.22;1.60;;;5.60;99.90;;;;;;14887606;23;20544;-85
2023/02/04 15:52:04;;;;;;;4.07;2.00;;;5.50;99.90;;;;;;14905247;23;20039;-85
2023/02/04 15:58:12;;;;;;;3.90;1.75;;;5.30;99.90;;;;;;14906439;23;20060;-85
2023/02/04 16:04:14;;;;;;;2.75;1.63;;;5.10;99.90;;;;;;14933310;23;20091;-85
2023/02/04 16:10:17;;;;;;;5.03;2.50;;;5.00;99.90;;;;;;14950209;23;20027;-86
2023/02/04 16:16:19;;;;;;;3.20;1.85;;;4.70;99.90;;;;;;14958677;23;20023;-85
2023/02/04 16:22:21;;;;;;;5.30;2.60;;;4.40;99.90;;;;;;14961887;23;20004;-85
2023/02/04 16:28:23;;;;;;;8.63;3.40;;;4.30;99.90;;;;;;14962525;23;20059;-85
2023/02/04 16:34:25;;;;;;;5.97;2.60;;;4.20;99.90;;;;;;14958506;23;20028;-85
2023/02/04 16:40:27;;;;;;;7.35;3.80;;;4.10;99.90;;;;;;14955862;23;20020;-85
2023/02/04 16:46:32;;;;;;;4.22;2.40;;;4.00;99.90;;;;;;14953257;23;20028;-85
2023/02/04 16:52:34;;;;;;;3.90;1.98;;;3.90;99.90;;;;;;14930149;23;20028;-85
2023/02/04 16:58:37;;;;;;;5.05;1.92;;;3.80;99.90;;;;;;14943420;23;20055;-84
2023/02/04 17:04:39;;;;;;;3.28;1.50;;;3.80;99.90;;;;;;14909545;23;20031;-85
2023/02/04 17:17:01;;;;;;;5.43;2.42;;;3.80;99.90;;;;;;14931579;23;20035;-84
2023/02/04 17:23:03;;;;;;;6.97;2.45;;;3.80;99.90;;;;;;14934632;23;20450;-84
2023/02/04 17:29:11;;;;;;;5.63;2.53;;;3.70;99.90;;;;;;14903584;23;20023;-84
2023/02/04 17:35:13;;;;;;;7.80;2.70;;;3.70;99.90;;;;;;14904577;23;20028;-84
2023/02/04 17:41:15;;;;;;;6.30;2.42;;;3.60;99.90;;;;;;14904145;23;20023;-84
2023/02/04 17:47:18;;;;;;;10.25;2.80;;;3.50;99.90;;;;;;14905362;23;20031;-84
2023/02/04 17:53:20;;;;;;;7.63;2.55;;;3.50;99.90;;;;;;14923417;23;20091;-84
2023/02/04 17:59:22;;;;;;;5.30;2.25;;;3.50;99.90;;;;;;14898193;23;20110;-84
2023/02/04 18:05:26;;;;;;;3.75;1.83;;;3.40;99.90;;;;;;14925534;23;20024;-84
2023/02/04 18:11:34;;;;;;;4.22;1.77;;;3.40;99.90;;;;;;14892772;23;20030;-84
2023/02/04 18:17:36;;;;;;;4.65;2.20;;;3.40;99.90;;;;;;14923922;23;20098;-85
2023/02/04 18:23:38;;;;;;;3.65;2.22;;;3.40;99.90;;;;;;14901010;23;20103;-84
2023/02/04 18:29:44;;;;;;;5.32;2.50;;;3.30;99.90;;;;;;14899791;23;20051;-85
2023/02/04 18:35:49;;;;;;;6.05;2.40;;;3.30;99.90;;;;;;14893768;23;20047;-84
2023/02/04 18:41:51;;;;;;;6.07;2.90;;;3.20;99.90;;;;;;14914642;23;20028;-84
2023/02/04 18:47:55;;;;;;;6.43;3.70;;;3.20;99.90;;;;;;14895695;23;20342;-84
2023/02/04 18:54:27;;;;;;;5.17;2.60;;;3.20;99.90;;;;;;14894020;23;20032;-84
2023/02/04 19:00:31;;;;;;;7.10;2.95;;;3.20;99.90;;;;;;14919750;23;20253;-84
2023/02/04 19:06:39;;;;;;;6.28;2.85;;;3.20;99.90;;;;;;14891213;23;20020;-84
2023/02/04 19:12:41;;;;;;;4.50;2.63;;;3.20;99.90;;;;;;14993715;23;20054;-85
2023/02/04 19:18:42;;;;;;;5.20;2.97;;;3.30;99.90;;;;;;15073819;23;20073;-85
2023/02/04 19:24:53;;;;;;;6.63;3.78;;;3.20;99.90;;;;;;15058684;23;20027;-37
2023/02/04 19:31:07;;;;;;;7.13;3.28;;;3.10;99.90;;;;;;15053242;23;20027;-36
2023/02/04 19:37:39;;;;;;;5.68;3.80;;;3.00;99.90;;;;;;15054991;23;20106;-37
2023/02/04 19:43:40;;;;;;;7.28;4.18;;;2.90;99.90;;;;;;15054744;23;20031;-37
2023/02/04 19:49:42;;;;;;;7.05;3.60;;;2.90;99.90;;;;;;15062403;23;20103;-36
2023/02/04 19:55:46;;;;;;;5.50;3.30;;;3.00;99.90;;;;;;15061410;23;20162;-37
2023/02/04 20:02:01;;;;;;;5.15;3.13;;;2.90;99.90;;;;;;15061233;23;20507;-36
2023/02/04 20:08:41;;;;;;;9.70;3.30;;;2.80;99.90;;;;;;15063189;23;20320;-37
2023/02/04 20:14:44;;;;;;;6.38;3.38;;;2.50;99.90;;;;;;15061272;23;20037;-37
2023/02/04 20:20:48;;;;;;;5.25;3.08;;;2.40;99.90;;;;;;15064417;23;20042;-36
2023/02/04 20:26:51;;;;;;;6.40;2.97;;;2.40;99.90;;;;;;15132476;23;20022;-36
2023/02/04 20:32:55;;;;;;;5.75;3.30;;;2.40;99.90;;;;;;15130239;23;20466;-37
2023/02/04 20:39:25;;;;;;;25.55;13.88;;;2.30;99.90;;;;;;15131673;23;20054;-36
2023/02/04 20:45:37;;;;;;;5.85;3.38;;;2.10;99.90;;;;;;15131956;23;20355;-37
2023/02/04 20:51:39;;;;;;;9.90;5.05;;;2.00;99.90;;;;;;15128793;23;20023;-37
2023/02/04 20:57:40;;;;;;;9.23;5.22;;;1.90;99.90;;;;;;15132633;23;20029;-37
2023/02/04 21:03:44;;;;;;;10.02;7.35;;;1.80;99.90;;;;;;15131118;23;20026;-37
2023/02/04 21:09:47;;;;;;;6.10;3.83;;;1.70;99.90;;;;;;15115577;23;20081;-36
2023/02/04 21:15:49;;;;;;;6.65;3.28;;;1.70;99.90;;;;;;15126876;23;20030;-36
2023/02/04 21:21:51;;;;;;;3.45;2.25;;;1.60;99.90;;;;;;15131572;23;20031;-37
2023/02/04 21:27:53;;;;;;;4.05;2.30;;;1.60;99.90;;;;;;15131431;23;20471;-36
2023/02/04 21:33:56;;;;;;;3.10;2.13;;;1.70;99.90;;;;;;15131891;23;20034;-36
2023/02/04 21:39:57;;;;;;;4.45;2.50;;;1.80;99.90;;;;;;15129061;23;20045;-36
2023/02/04 21:45:59;;;;;;;3.55;2.25;;;1.80;99.90;;;;;;15129626;23;20040;-36
2023/02/04 21:52:01;;;;;;;7.47;2.58;;;1.70;99.90;;;;;;15130732;23;20395;-36
2023/02/04 21:58:03;;;;;;;4.32;2.20;;;1.80;99.90;;;;;;15123459;23;20022;-36
2023/02/04 22:04:05;;;;;;;4.05;2.25;;;1.60;99.90;;;;;;15125158;23;20026;-36
2023/02/04 22:10:11;;;;;;;4.45;2.50;;;1.40;99.90;;;;;;15129459;23;20486;-36
2023/02/04 22:16:13;;;;;;;4.30;2.30;;;1.40;99.90;;;;;;15092715;23;20030;-36
2023/02/04 22:22:15;;;;;;;3.75;1.92;;;1.40;99.90;;;;;;15131925;23;20539;-36
2023/02/04 22:28:17;;;;;;;3.50;1.90;;;1.30;99.90;;;;;;15129746;23;20030;-36
2023/02/04 22:34:19;;;;;;;2.55;1.55;;;1.60;99.90;;;;;;15130187;23;20066;-36
2023/02/04 22:40:21;;;;;;;3.05;1.55;;;1.70;99.90;;;;;;15104194;23;20031;-36
2023/02/04 22:46:23;;;;;;;4.22;1.75;;;1.90;99.90;;;;;;15130362;23;20023;-36
2023/02/04 22:52:25;;;;;;;2.35;1.45;;;2.00;99.90;;;;;;15131758;23;20026;-37
2023/02/04 22:58:27;;;;;;;5.75;2.00;;;2.00;99.90;;;;;;15131817;23;20057;-36
2023/02/04 23:04:29;;;;;;;5.55;2.17;;;1.90;99.90;;;;;;15103866;23;20030;-36
2023/02/04 23:10:31;;;;;;;3.83;1.70;;;1.90;99.90;;;;;;15128544;23;20023;-36
2023/02/04 23:16:33;;;;;;;4.28;1.80;;;1.80;99.90;;;;;;15128739;23;20030;-35
2023/02/04 23:22:35;;;;;;;5.30;1.80;;;1.90;99.90;;;;;;15129497;23;20061;-36
2023/02/04 23:28:37;;;;;;;4.63;1.73;;;2.10;99.90;;;;;;15132021;23;20019;-36
2023/02/04 23:34:38;;;;;;;3.05;1.60;;;2.10;99.90;;;;;;15132548;23;20109;-36
2023/02/04 23:40:40;;;;;;;4.95;2.22;;;2.10;99.90;;;;;;15137770;23;20027;-36
2023/02/04 23:46:42;;;;;;;4.05;1.98;;;2.00;99.90;;;;;;15133954;23;20101;-36
2023/02/04 23:52:44;;;;;;;3.72;2.10;;;1.90;99.90;;;;;;15133410;23;20026;-36
2023/02/04 23:58:46;;;;;;;3.42;1.85;;;1.70;99.90;;;;;;15135935;23;20026;-36
